Airport View

Enter AWOS ICAO identifier for current METAR.

ex. KFNL

KEBS 170920Z AUTO 17008KT 9SM FEW060 OVC090 03/02 A2993 RMK AO2

17 Nov 2019 09:23

Frequency: 127.825

Phone: 515-832-2794

Other Area AWOS: KFOD - KCAV - KBNW - KIFA

TAF KFOD 170531Z 1706/1806 16012KT P6SM OVC100 FM170800 18009KT 6SM -RA SCT025 OVC080 FM171000 24007KT P6SM VCSH OVC025 FM171300 32010G16KT P6SM OVC030